Time;durP1;ratioP1;P1;durP2;ratioP2;P2;SDS_P1;SDS_P2;PMS_P1;PMS_P2;Temp;Humidity;BMP_temperature;BMP_pressure;BME280_temperature;BME280_humidity;BME280_pressure;Samples;Min_cycle;Max_cycle;Signal;HPM_P1;HPM_P2
2021/05/05 00:01:10;;;;;;;;;;;10.90;99.90;;;;;;5067708;28;19924;-74
2021/05/05 00:03:35;;;;;;;;;;;10.90;99.90;;;;;;5069666;28;19909;-74
2021/05/05 00:06:02;;;;;;;;;;;10.80;99.90;;;;;;5069856;28;19915;-74
2021/05/05 00:08:27;;;;;;;;;;;10.80;99.90;;;;;;5068481;28;20309;-74
2021/05/05 00:10:53;;;;;;;;;;;10.80;99.90;;;;;;5072043;28;19999;-74
2021/05/05 00:13:22;;;;;;;;;;;10.70;99.90;;;;;;5073273;28;19909;-74
2021/05/05 00:15:47;;;;;;;;;;;10.70;99.90;;;;;;5073763;28;20401;-74
2021/05/05 00:18:13;;;;;;;;;;;10.60;99.90;;;;;;5073082;28;19948;-74
2021/05/05 00:20:39;;;;;;;;;;;10.70;99.90;;;;;;5072390;28;20006;-74
2021/05/05 00:23:05;;;;;;;;;;;10.60;99.90;;;;;;5072807;28;19912;-73
2021/05/05 00:25:30;;;;;;;;;;;10.70;99.90;;;;;;5072596;28;20417;-73
2021/05/05 00:27:56;;;;;;;;;;;10.70;99.90;;;;;;5072824;28;19915;-73
2021/05/05 00:30:23;;;;;;;;;;;10.60;99.90;;;;;;5071972;28;20641;-73
2021/05/05 00:32:48;;;;;;;;;;;10.60;99.90;;;;;;5072555;28;19965;-73
2021/05/05 00:35:14;;;;;;;;;;;10.60;99.90;;;;;;5072545;28;19917;-74
2021/05/05 00:37:43;;;;;;;;;;;10.60;99.90;;;;;;5071895;28;20345;-74
2021/05/05 00:40:09;;;;;;;;;;;10.60;99.90;;;;;;5071922;28;20260;-74
2021/05/05 00:42:35;;;;;;;;;;;10.60;99.90;;;;;;5072148;28;19922;-74
2021/05/05 00:45:03;;;;;;;;;;;10.60;99.90;;;;;;5058354;28;19909;-74
2021/05/05 00:47:28;;;;;;;;;;;10.60;99.90;;;;;;5052688;28;20004;-74
2021/05/05 00:49:54;;;;;;;;;;;10.60;99.90;;;;;;5051103;28;20571;-74
2021/05/05 00:52:20;;;;;;;;;;;10.60;99.90;;;;;;5052275;28;20376;-74
2021/05/05 00:54:46;;;;;;;;;;;10.60;99.90;;;;;;5051840;28;19909;-74
2021/05/05 00:57:12;;;;;;;;;;;10.60;99.90;;;;;;5052321;28;19909;-74
2021/05/05 00:59:37;;;;;;;;;;;10.50;99.90;;;;;;5051624;28;20341;-73
2021/05/05 01:02:03;;;;;;;;;;;10.50;99.90;;;;;;5060728;28;19931;-73
2021/05/05 01:04:28;;;;;;;;;;;10.60;99.90;;;;;;5072041;28;19908;-73
2021/05/05 01:06:54;;;;;;;;;;;10.60;99.90;;;;;;5071282;28;19919;-73
2021/05/05 01:09:20;;;;;;;;;;;10.60;99.90;;;;;;5070485;28;19913;-73
2021/05/05 01:11:46;;;;;;;;;;;10.60;99.90;;;;;;5071034;28;20015;-73
2021/05/05 01:14:12;;;;;;;;;;;10.60;99.90;;;;;;5071652;28;19912;-74
2021/05/05 01:16:37;;;;;;;;;;;10.60;99.90;;;;;;5071750;28;19912;-73
2021/05/05 01:19:03;;;;;;;;;;;10.60;99.90;;;;;;5071656;28;19917;-73
2021/05/05 01:21:28;;;;;;;;;;;10.60;99.90;;;;;;5071111;28;20373;-74
2021/05/05 01:23:54;;;;;;;;;;;10.50;99.90;;;;;;5070472;28;20307;-73
2021/05/05 01:26:19;;;;;;;;;;;10.40;99.90;;;;;;5071686;28;19912;-73
2021/05/05 01:28:45;;;;;;;;;;;10.20;99.90;;;;;;5071242;28;20245;-73
2021/05/05 01:31:13;;;;;;;;;;;10.10;99.90;;;;;;5070427;28;19913;-73
2021/05/05 01:33:39;;;;;;;;;;;9.90;99.90;;;;;;5071283;28;19912;-73
2021/05/05 01:36:06;;;;;;;;;;;9.90;99.90;;;;;;5071603;28;19988;-73
2021/05/05 01:38:32;;;;;;;;;;;9.70;99.90;;;;;;5069393;28;20457;-73
2021/05/05 01:40:58;;;;;;;;;;;9.70;99.90;;;;;;5068865;28;19974;-73
2021/05/05 01:43:23;;;;;;;;;;;9.40;99.90;;;;;;5063415;28;19960;-74
2021/05/05 01:45:49;;;;;;;;;;;9.30;99.90;;;;;;5071699;28;20298;-74
2021/05/05 01:48:16;;;;;;;;;;;9.20;99.90;;;;;;5071248;28;20058;-73
2021/05/05 01:50:41;;;;;;;;;;;9.10;99.90;;;;;;5069908;28;19912;-74
2021/05/05 01:53:07;;;;;;;;;;;9.10;99.90;;;;;;5070342;28;19928;-74
2021/05/05 01:55:33;;;;;;;;;;;9.10;99.90;;;;;;5071331;28;20447;-74
2021/05/05 01:57:58;;;;;;;;;;;9.00;99.90;;;;;;5072045;28;19935;-74
2021/05/05 02:00:25;;;;;;;;;;;9.00;99.90;;;;;;5070855;28;19974;-74
2021/05/05 02:02:51;;;;;;;;;;;8.90;99.90;;;;;;5071573;28;19943;-74
2021/05/05 02:05:17;;;;;;;;;;;9.00;99.90;;;;;;5070794;28;19988;-74
2021/05/05 02:07:42;;;;;;;;;;;9.00;99.90;;;;;;5070082;28;19913;-74
2021/05/05 02:10:09;;;;;;;;;;;9.00;99.90;;;;;;5069473;28;19909;-74
2021/05/05 02:12:35;;;;;;;;;;;9.00;99.90;;;;;;5070005;28;19916;-74
2021/05/05 02:15:00;;;;;;;;;;;9.00;99.90;;;;;;5070617;28;19916;-74
2021/05/05 02:17:26;;;;;;;;;;;9.10;99.90;;;;;;5071071;28;19915;-74
2021/05/05 02:19:51;;;;;;;;;;;9.00;99.90;;;;;;5070077;28;19912;-74
2021/05/05 02:22:17;;;;;;;;;;;9.10;99.90;;;;;;5072783;28;19909;-74
2021/05/05 02:24:42;;;;;;;;;;;9.00;99.90;;;;;;5071886;28;19938;-74
2021/05/05 02:27:08;;;;;;;;;;;9.10;99.90;;;;;;5055184;28;19931;-74
2021/05/05 02:29:34;;;;;;;;;;;8.90;99.90;;;;;;5071377;28;19927;-74
2021/05/05 02:32:00;;;;;;;;;;;8.90;99.90;;;;;;5068474;28;19966;-74
2021/05/05 02:34:25;;;;;;;;;;;8.90;99.90;;;;;;5053918;28;19920;-74
2021/05/05 02:36:51;;;;;;;;;;;8.80;99.90;;;;;;5049458;28;19908;-74
2021/05/05 02:39:18;;;;;;;;;;;8.80;99.90;;;;;;5030602;28;20385;-74
2021/05/05 02:41:45;;;;;;;;;;;8.80;99.90;;;;;;5050049;28;19909;-74
2021/05/05 02:44:11;;;;;;;;;;;8.80;99.90;;;;;;5057781;28;19916;-73
2021/05/05 02:46:36;;;;;;;;;;;8.90;99.90;;;;;;5069891;28;20039;-73
2021/05/05 02:49:03;;;;;;;;;;;8.90;99.90;;;;;;5069185;28;19954;-73
2021/05/05 02:51:28;;;;;;;;;;;8.80;99.90;;;;;;5069333;28;19917;-73
2021/05/05 02:53:54;;;;;;;;;;;8.70;99.90;;;;;;5068786;28;20314;-74
2021/05/05 02:56:19;;;;;;;;;;;8.80;99.90;;;;;;5070605;28;19908;-75
2021/05/05 02:58:45;;;;;;;;;;;8.80;99.90;;;;;;5069069;28;19909;-74
2021/05/05 03:01:11;;;;;;;;;;;8.80;99.90;;;;;;5068596;28;20007;-74
2021/05/05 03:03:36;;;;;;;;;;;8.80;99.90;;;;;;5069726;28;19940;-75
2021/05/05 03:06:02;;;;;;;;;;;8.70;99.90;;;;;;5069655;28;19967;-74
2021/05/05 03:08:27;;;;;;;;;;;8.60;99.90;;;;;;5068365;28;19912;-74
2021/05/05 03:10:53;;;;;;;;;;;8.60;99.90;;;;;;5069007;28;19940;-75
2021/05/05 03:13:19;;;;;;;;;;;8.60;99.90;;;;;;5069460;28;20478;-74
2021/05/05 03:15:44;;;;;;;;;;;8.50;99.90;;;;;;5069459;28;20004;-75
2021/05/05 03:18:10;;;;;;;;;;;8.50;99.90;;;;;;5069554;28;19909;-75
2021/05/05 03:20:35;;;;;;;;;;;8.60;99.90;;;;;;5068210;28;19992;-74
2021/05/05 03:23:01;;;;;;;;;;;8.50;99.90;;;;;;5050434;28;19923;-74
2021/05/05 03:25:26;;;;;;;;;;;8.50;99.90;;;;;;5069477;28;19909;-74
2021/05/05 03:27:52;;;;;;;;;;;8.50;99.90;;;;;;5069234;28;19913;-74
2021/05/05 03:30:18;;;;;;;;;;;8.40;99.90;;;;;;5068396;28;20320;-74
2021/05/05 03:32:43;;;;;;;;;;;8.20;99.90;;;;;;5069047;28;20003;-74
2021/05/05 03:35:09;;;;;;;;;;;8.20;99.90;;;;;;5069093;28;19913;-74
2021/05/05 03:37:34;;;;;;;;;;;8.20;99.90;;;;;;5069030;28;19970;-73
2021/05/05 03:40:00;;;;;;;;;;;8.20;99.90;;;;;;5067714;28;20288;-73
2021/05/05 03:42:26;;;;;;;;;;;8.10;99.90;;;;;;5069691;28;19999;-73
2021/05/05 03:44:51;;;;;;;;;;;8.10;99.90;;;;;;5068486;28;20107;-73
2021/05/05 03:47:17;;;;;;;;;;;8.10;99.90;;;;;;5069275;28;19908;-73
2021/05/05 03:49:42;;;;;;;;;;;8.10;99.90;;;;;;5068423;28;20015;-73
2021/05/05 03:52:08;;;;;;;;;;;8.20;99.90;;;;;;5068533;28;19922;-72
2021/05/05 03:54:33;;;;;;;;;;;8.20;99.90;;;;;;5068122;28;19930;-73
2021/05/05 03:56:59;;;;;;;;;;;8.20;99.90;;;;;;5069202;28;19956;-73
2021/05/05 03:59:24;;;;;;;;;;;8.20;99.90;;;;;;5068430;28;20242;-73
2021/05/05 04:01:50;;;;;;;;;;;8.20;99.90;;;;;;5069077;28;19970;-73
2021/05/05 04:04:15;;;;;;;;;;;8.10;99.90;;;;;;5069104;28;19908;-73
2021/05/05 04:06:41;;;;;;;;;;;8.10;99.90;;;;;;5068357;28;19916;-74
2021/05/05 04:09:06;;;;;;;;;;;8.10;99.90;;;;;;5066723;28;19951;-73
2021/05/05 04:11:32;;;;;;;;;;;8.10;99.90;;;;;;5069035;28;20003;-74
2021/05/05 04:13:57;;;;;;;;;;;8.10;99.90;;;;;;5068719;28;19909;-73
2021/05/05 04:16:23;;;;;;;;;;;8.10;99.90;;;;;;5069293;28;19996;-74
2021/05/05 04:18:48;;;;;;;;;;;8.10;99.90;;;;;;5068518;28;19953;-74
2021/05/05 04:21:14;;;;;;;;;;;8.10;99.90;;;;;;5067726;28;19927;-73
2021/05/05 04:23:39;;;;;;;;;;;8.20;99.90;;;;;;5067427;28;19912;-74
2021/05/05 04:26:05;;;;;;;;;;;8.20;99.90;;;;;;5062729;28;19920;-73
2021/05/05 04:28:31;;;;;;;;;;;8.20;99.90;;;;;;5065528;28;19909;-73
2021/05/05 04:30:57;;;;;;;;;;;8.20;99.90;;;;;;5067499;28;19995;-73
2021/05/05 04:33:22;;;;;;;;;;;8.20;99.90;;;;;;5068967;28;20280;-73
2021/05/05 04:35:48;;;;;;;;;;;8.20;99.90;;;;;;5068024;28;19913;-73
2021/05/05 04:38:13;;;;;;;;;;;8.30;99.90;;;;;;5065509;28;19965;-73
2021/05/05 04:40:39;;;;;;;;;;;8.30;99.90;;;;;;5067816;28;19912;-74
2021/05/05 04:43:05;;;;;;;;;;;8.40;99.90;;;;;;5068320;28;19912;-74
2021/05/05 04:45:31;;;;;;;;;;;8.30;99.90;;;;;;5068278;28;20008;-74
2021/05/05 04:47:56;;;;;;;;;;;8.10;99.90;;;;;;5068363;28;20058;-73
2021/05/05 04:50:22;;;;;;;;;;;8.00;99.90;;;;;;5067187;28;19908;-74
2021/05/05 04:52:47;;;;;;;;;;;7.90;99.90;;;;;;5067142;28;19924;-74
2021/05/05 04:55:13;;;;;;;;;;;7.90;99.90;;;;;;5072827;28;20011;-70
2021/05/05 04:57:38;;;;;;;;;;;7.90;99.90;;;;;;5074276;28;19909;-70
2021/05/05 05:00:05;;;;;;;;;;;8.00;99.90;;;;;;5087863;28;19922;-71
2021/05/05 05:02:31;;;;;;;;;;;8.10;99.90;;;;;;5088991;28;19939;-71
2021/05/05 05:04:56;;;;;;;;;;;8.10;99.90;;;;;;5086006;28;20035;-71
2021/05/05 05:07:22;;;;;;;;;;;8.10;99.90;;;;;;5082910;28;20023;-69
2021/05/05 05:09:47;;;;;;;;;;;8.20;99.90;;;;;;5084618;28;20296;-71
2021/05/05 05:12:13;;;;;;;;;;;8.20;99.90;;;;;;5088208;28;19916;-71
2021/05/05 05:14:38;;;;;;;;;;;8.20;99.90;;;;;;5065179;28;20284;-69
2021/05/05 05:17:04;;;;;;;;;;;8.20;99.90;;;;;;5088000;28;19917;-73
2021/05/05 05:19:30;;;;;;;;;;;8.30;99.90;;;;;;5077515;28;20383;-75
2021/05/05 05:21:55;;;;;;;;;;;8.30;99.90;;;;;;5072459;28;19920;-75
2021/05/05 05:24:21;;;;;;;;;;;8.20;99.90;;;;;;5068198;28;19909;-75
2021/05/05 05:26:46;;;;;;;;;;;8.30;99.90;;;;;;5066466;28;19912;-72
2021/05/05 05:29:12;;;;;;;;;;;8.30;99.90;;;;;;5058038;28;20047;-72
2021/05/05 05:31:37;;;;;;;;;;;8.30;99.90;;;;;;5052176;28;19921;-71
2021/05/05 05:34:03;;;;;;;;;;;8.40;99.90;;;;;;5063177;28;19908;-70
2021/05/05 05:36:28;;;;;;;;;;;8.30;99.90;;;;;;5071131;28;19913;-72
2021/05/05 05:38:54;;;;;;;;;;;8.40;99.90;;;;;;5070585;28;19923;-71
2021/05/05 05:41:19;;;;;;;;;;;8.40;99.90;;;;;;5071636;28;19908;-71
2021/05/05 05:43:45;;;;;;;;;;;8.40;99.90;;;;;;5071136;28;19908;-72
2021/05/05 05:46:13;;;;;;;;;;;8.40;99.90;;;;;;5071633;28;19915;-73
2021/05/05 05:48:39;;;;;;;;;;;8.50;99.90;;;;;;5071096;28;19909;-72
2021/05/05 05:51:05;;;;;;;;;;;8.70;99.90;;;;;;5069361;28;19913;-72
2021/05/05 05:53:31;;;;;;;;;;;8.80;99.90;;;;;;5060054;28;19991;-74
2021/05/05 05:55:56;;;;;;;;;;;8.90;99.90;;;;;;5051475;28;20360;-74
2021/05/05 05:58:22;;;;;;;;;;;9.00;99.90;;;;;;5051047;28;20012;-75
2021/05/05 06:00:47;;;;;;;;;;;9.10;99.90;;;;;;5050415;28;19913;-74
2021/05/05 06:03:12;;;;;;;;;;;9.20;99.90;;;;;;5062955;28;19944;-75
2021/05/05 06:05:38;;;;;;;;;;;9.30;99.90;;;;;;5070379;28;20011;-74
2021/05/05 06:08:04;;;;;;;;;;;9.50;99.90;;;;;;5067393;28;20332;-74
2021/05/05 06:10:30;;;;;;;;;;;9.50;99.90;;;;;;5067523;28;20369;-74
2021/05/05 06:12:55;;;;;;;;;;;9.40;99.90;;;;;;5066733;28;20273;-74
2021/05/05 06:15:21;;;;;;;;;;;9.40;99.90;;;;;;5069852;28;20336;-76
2021/05/05 06:17:47;;;;;;;;;;;9.60;99.90;;;;;;5069579;28;19908;-74
2021/05/05 06:20:12;;;;;;;;;;;9.70;99.90;;;;;;5068163;28;19909;-74
2021/05/05 06:22:38;;;;;;;;;;;9.90;99.90;;;;;;5068968;28;20286;-74
2021/05/05 06:25:06;;;;;;;;;;;9.90;99.90;;;;;;5068542;28;20039;-75
2021/05/05 06:27:31;;;;;;;;;;;9.90;99.90;;;;;;5069654;28;19958;-75
2021/05/05 06:29:57;;;;;;;;;;;9.80;99.90;;;;;;5050353;28;19909;-74
2021/05/05 06:32:22;;;;;;;;;;;9.80;99.90;;;;;;5069357;28;20002;-74
2021/05/05 06:34:48;;;;;;;;;;;9.80;99.90;;;;;;5071514;28;20073;-74
2021/05/05 06:37:14;;;;;;;;;;;10.00;99.90;;;;;;5071988;28;19916;-74
2021/05/05 06:39:39;;;;;;;;;;;10.10;99.90;;;;;;5070829;28;19908;-74
2021/05/05 06:42:05;;;;;;;;;;;10.30;99.90;;;;;;5071381;28;19912;-75
2021/05/05 06:44:31;;;;;;;;;;;10.50;99.90;;;;;;5073370;28;20355;-72
2021/05/05 06:46:56;;;;;;;;;;;10.60;99.90;;;;;;5072854;28;19973;-71
2021/05/05 06:49:22;;;;;;;;;;;10.90;99.90;;;;;;5072093;28;19954;-74
2021/05/05 06:51:48;;;;;;;;;;;11.10;99.90;;;;;;5071818;28;19916;-74
2021/05/05 06:54:14;;;;;;;;;;;11.30;99.90;;;;;;5059041;28;19913;-73
2021/05/05 06:56:40;;;;;;;;;;;11.20;99.90;;;;;;5054674;28;19916;-75
2021/05/05 06:59:05;;;;;;;;;;;11.20;99.90;;;;;;5040418;28;19912;-74
2021/05/05 07:01:31;;;;;;;;;;;11.20;99.90;;;;;;5091676;22;19994;-74
2021/05/05 07:03:56;;;;;;;;;;;11.20;99.90;;;;;;5047425;28;20275;-73
2021/05/05 07:06:22;;;;;;;;;;;11.20;99.90;;;;;;5049701;28;20011;-73
2021/05/05 07:08:47;;;;;;;;;;;11.40;99.90;;;;;;5048362;28;19909;-74
2021/05/05 07:11:13;;;;;;;;;;;11.60;99.90;;;;;;5048298;28;19939;-74
2021/05/05 07:13:38;;;;;;;;;;;11.70;99.90;;;;;;5030102;28;19913;-75
2021/05/05 07:16:04;;;;;;;;;;;11.70;99.90;;;;;;5030111;28;20296;-75
2021/05/05 07:18:30;;;;;;;;;;;11.50;99.90;;;;;;5029401;28;20436;-74
2021/05/05 07:20:57;;;;;;;;;;;11.30;99.90;;;;;;5021081;28;19910;-74
2021/05/05 07:23:23;;;;;;;;;;;11.20;99.90;;;;;;5027576;28;19913;-74
2021/05/05 07:25:48;;;;;;;;;;;10.90;99.90;;;;;;5029696;28;20058;-74
2021/05/05 07:28:14;;;;;;;;;;;10.90;99.90;;;;;;5029317;28;19909;-74
2021/05/05 07:30:39;;;;;;;;;;;10.80;99.90;;;;;;5028901;28;19931;-74
2021/05/05 07:33:05;;;;;;;;;;;10.90;99.90;;;;;;5028656;28;19913;-74
2021/05/05 07:35:31;;;;;;;;;;;11.00;99.90;;;;;;5029087;28;19916;-74
2021/05/05 07:46:06;;;;;;;;;;;11.30;99.90;;;;;;5028108;28;19913;-74
2021/05/05 07:51:03;;;;;;;;;;;11.40;99.90;;;;;;5028291;28;20362;-73
2021/05/05 07:53:29;;;;;;;;;;;11.60;99.90;;;;;;5027804;28;19917;-73
2021/05/05 07:55:56;;;;;;;;;;;11.70;99.90;;;;;;5029655;28;20424;-74
2021/05/05 07:58:22;;;;;;;;;;;11.80;99.90;;;;;;5028926;28;19963;-76
2021/05/05 08:00:48;;;;;;;;;;;11.70;99.90;;;;;;5028575;28;19913;-74
2021/05/05 08:03:13;;;;;;;;;;;11.60;99.90;;;;;;5028978;28;19924;-74
2021/05/05 08:05:39;;;;;;;;;;;11.70;99.90;;;;;;5029167;28;19913;-74
2021/05/05 08:08:04;;;;;;;;;;;11.80;99.90;;;;;;5028346;28;19916;-74
2021/05/05 08:10:30;;;;;;;;;;;11.80;99.90;;;;;;5027752;28;19952;-74
2021/05/05 08:12:55;;;;;;;;;;;11.90;99.90;;;;;;5028255;28;19959;-74
2021/05/05 08:15:21;;;;;;;;;;;11.70;99.90;;;;;;5029041;28;19921;-74
2021/05/05 08:17:47;;;;;;;;;;;11.30;99.90;;;;;;5029411;28;20385;-75
2021/05/05 08:20:13;;;;;;;;;;;11.00;99.90;;;;;;5027987;28;19917;-75
2021/05/05 08:22:39;;;;;;;;;;;10.90;99.90;;;;;;5028608;28;19963;-75
2021/05/05 08:25:04;;;;;;;;;;;11.00;99.90;;;;;;5028140;28;19948;-74
2021/05/05 08:27:30;;;;;;;;;;;11.40;99.90;;;;;;5029379;28;19909;-75
2021/05/05 08:29:55;;;;;;;;;;;11.70;99.90;;;;;;5028621;28;20323;-74
2021/05/05 08:32:21;;;;;;;;;;;12.10;99.90;;;;;;5015359;28;19957;-73
2021/05/05 08:34:48;;;;;;;;;;;12.60;99.90;;;;;;5029142;28;20356;-73
2021/05/05 08:37:13;;;;;;;;;;;13.00;99.90;;;;;;5022033;28;19956;-72
2021/05/05 08:39:39;;;;;;;;;;;13.40;99.90;;;;;;5020225;28;19913;-72
2021/05/05 08:42:05;;;;;;;;;;;13.70;99.90;;;;;;5032257;28;19913;-74
2021/05/05 08:44:31;;;;;;;;;;;13.90;99.90;;;;;;5031444;28;19909;-74
2021/05/05 08:46:59;;;;;;;;;;;14.00;99.90;;;;;;5032792;28;20585;-74
2021/05/05 08:49:25;;;;;;;;;;;14.30;99.90;;;;;;5032198;28;19913;-74
2021/05/05 08:51:50;;;;;;;;;;;14.20;99.90;;;;;;5031771;28;19913;-74
2021/05/05 08:54:16;;;;;;;;;;;14.20;99.90;;;;;;5030520;28;19913;-74
2021/05/05 08:56:42;;;;;;;;;;;14.20;99.90;;;;;;5032535;28;20254;-74
2021/05/05 08:59:10;;;;;;;;;;;13.70;99.90;;;;;;5031752;28;19913;-74
2021/05/05 09:01:36;;;;;;;;;;;13.80;99.90;;;;;;5032223;28;20317;-74
2021/05/05 09:04:01;;;;;;;;;;;13.90;99.90;;;;;;5032333;28;20016;-74
2021/05/05 09:06:47;;;;;;;;;;;13.90;99.90;;;;;;5032173;28;19952;-74
2021/05/05 09:09:29;;;;;;;;;;;13.80;99.90;;;;;;5031051;28;19920;-73
2021/05/05 09:11:55;;;;;;;;;;;13.90;99.90;;;;;;5032553;28;19913;-73
2021/05/05 09:14:20;;;;;;;;;;;13.90;99.90;;;;;;5032343;28;19932;-73
2021/05/05 09:16:46;;;;;;;;;;;14.00;99.90;;;;;;5032099;28;19913;-73
2021/05/05 09:19:11;;;;;;;;;;;14.10;99.90;;;;;;5031494;28;19917;-74
2021/05/05 09:21:41;;;;;;;;;;;14.20;99.90;;;;;;5030382;28;19914;-74
2021/05/05 09:24:12;;;;;;;;;;;14.00;99.80;;;;;;5029265;28;19913;-74
2021/05/05 09:26:38;;;;;;;;;;;13.80;98.90;;;;;;5029380;28;19959;-73
2021/05/05 09:29:04;;;;;;;;;;;14.30;98.10;;;;;;5031049;28;19913;-74
2021/05/05 09:31:33;;;;;;;;;;;16.10;95.70;;;;;;5031968;28;19913;-73
2021/05/05 09:33:59;;;;;;;;;;;17.40;99.90;;;;;;5031616;28;19913;-74
2021/05/05 09:36:25;;;;;;;;;;;19.30;99.90;;;;;;5031520;28;20386;-74
2021/05/05 09:38:51;;;;;;;;;;;20.80;99.90;;;;;;5029710;28;19916;-73
2021/05/05 09:41:24;;;;;;;;;;;21.20;99.90;;;;;;5030117;28;19909;-74
2021/05/05 09:43:50;;;;;;;;;;;20.90;99.90;;;;;;5031342;28;19917;-74
2021/05/05 09:46:31;;;;;;;;;;;20.80;99.90;;;;;;5031453;28;20015;-75
2021/05/05 09:49:17;;;;;;;;;;;20.50;99.90;;;;;;5030633;28;19909;-74
2021/05/05 09:51:46;;;;;;;;;;;19.70;99.90;;;;;;5016199;28;19996;-74
2021/05/05 09:54:41;;;;;;;;;;;18.60;99.90;;;;;;5029940;28;19940;-74
2021/05/05 09:57:14;;;;;;;;;;;17.50;99.90;;;;;;5014213;28;20009;-74
2021/05/05 09:59:52;;;;;;;;;;;16.60;99.90;;;;;;5030394;28;19909;-73
2021/05/05 10:02:18;;;;;;;;;;;15.90;99.90;;;;;;5031260;28;19924;-73
2021/05/05 10:04:55;;;;;;;;;;;15.30;99.90;;;;;;5030711;28;19909;-74
2021/05/05 10:07:21;;;;;;;;;;;14.80;99.90;;;;;;5030053;28;19929;-75
2021/05/05 10:09:46;;;;;;;;;;;14.30;99.90;;;;;;5028896;28;19910;-73
2021/05/05 10:12:12;;;;;;;;;;;14.30;99.90;;;;;;5029875;28;19940;-73
2021/05/05 10:14:37;;;;;;;;;;;14.10;99.90;;;;;;5030316;28;20406;-74
2021/05/05 10:17:03;;;;;;;;;;;14.50;99.90;;;;;;5031223;28;19996;-75
2021/05/05 10:19:34;;;;;;;;;;;15.80;99.90;;;;;;5030354;28;19913;-74
2021/05/05 10:22:00;;;;;;;;;;;18.00;99.90;;;;;;5029972;28;19909;-74
2021/05/05 10:24:29;;;;;;;;;;;20.30;99.90;;;;;;5030036;28;19915;-73
2021/05/05 10:26:56;;;;;;;;;;;22.10;1.00;;;;;;5030653;28;19963;-74
2021/05/05 10:29:22;;;;;;;;;;;;;;;;;;5030323;28;19916;-74
2021/05/05 10:31:49;;;;;;;;;;;;;;;;;;5030773;28;19917;-76
2021/05/05 10:34:20;;;;;;;;;;;25.30;99.90;;;;;;5030405;28;19956;-75
2021/05/05 10:36:51;;;;;;;;;;;25.80;99.90;;;;;;5030157;28;19932;-73
2021/05/05 10:39:16;;;;;;;;;;;25.80;95.80;;;;;;5029201;28;19909;-73
2021/05/05 10:41:42;;;;;;;;;;;25.70;78.40;;;;;;5030984;28;19920;-74
2021/05/05 10:44:08;;;;;;;;;;;26.00;96.90;;;;;;5030243;28;19909;-73
2021/05/05 10:46:34;;;;;;;;;;;26.00;88.60;;;;;;5030803;28;20398;-73
2021/05/05 10:49:01;;;;;;;;;;;25.70;78.50;;;;;;5029421;28;19913;-74
2021/05/05 10:51:47;;;;;;;;;;;25.40;65.80;;;;;;5029878;28;19913;-74
2021/05/05 10:54:17;;;;;;;;;;;24.80;59.60;;;;;;5029050;28;19920;-75
2021/05/05 10:56:44;;;;;;;;;;;24.40;57.90;;;;;;5030617;28;19913;-74
2021/05/05 10:59:11;;;;;;;;;;;23.90;59.90;;;;;;5029395;28;19921;-73
2021/05/05 11:01:37;;;;;;;;;;;22.90;17.80;;;;;;5030062;28;19979;-73
2021/05/05 11:04:04;;;;;;;;;;;22.20;13.70;;;;;;5012657;28;19910;-72
2021/05/05 11:06:32;;;;;;;;;;;22.50;13.10;;;;;;5030077;28;19909;-73
2021/05/05 11:09:10;;;;;;;;;;;23.10;12.90;;;;;;5028083;28;19946;-74
2021/05/05 11:11:37;;;;;;;;;;;23.80;12.70;;;;;;5029492;28;20385;-74
2021/05/05 11:14:02;;;;;;;;;;;23.60;9.00;;;;;;5030122;28;19967;-74
2021/05/05 11:16:48;;;;;;;;;;;22.50;3.10;;;;;;5029993;28;19995;-74
2021/05/05 11:19:32;;;;;;;;;;;21.60;1.00;;;;;;5021024;28;19913;-74
2021/05/05 11:21:58;;;;;;;;;;;21.20;1.00;;;;;;5029332;28;19909;-73
2021/05/05 11:24:28;;;;;;;;;;;21.00;1.00;;;;;;5028957;28;19909;-73
2021/05/05 11:26:53;;;;;;;;;;;20.80;1.00;;;;;;5029757;28;19921;-74
2021/05/05 11:29:19;;;;;;;;;;;;;;;;;;5029217;28;19921;-74
2021/05/05 11:31:45;;;;;;;;;;;20.40;1.00;;;;;;5029629;28;19913;-73
2021/05/05 11:34:28;;;;;;;;;;;20.00;99.90;;;;;;5029557;28;19931;-73
2021/05/05 11:37:00;;;;;;;;;;;20.10;99.90;;;;;;5026902;28;19923;-73
2021/05/05 11:39:46;;;;;;;;;;;20.20;99.90;;;;;;5027005;28;19953;-73
2021/05/05 11:42:13;;;;;;;;;;;19.80;99.90;;;;;;5026728;28;20644;-73
2021/05/05 11:44:41;;;;;;;;;;;19.90;99.90;;;;;;5028231;28;20343;-73
2021/05/05 11:47:09;;;;;;;;;;;20.00;99.90;;;;;;5029714;28;20011;-73
2021/05/05 11:50:00;;;;;;;;;;;19.90;99.90;;;;;;5028995;28;20392;-73
2021/05/05 11:52:27;;;;;;;;;;;19.40;99.90;;;;;;5026781;28;19917;-72
2021/05/05 11:55:03;;;;;;;;;;;18.70;99.90;;;;;;5024839;28;20008;-72
2021/05/05 11:57:33;;;;;;;;;;;18.20;99.90;;;;;;5019671;28;19960;-72
2021/05/05 12:00:10;;;;;;;;;;;17.80;99.90;;;;;;5017309;28;19991;-73
2021/05/05 12:02:47;;;;;;;;;;;17.60;99.90;;;;;;5017481;28;19971;-72
2021/05/05 12:05:21;;;;;;;;;;;17.40;99.90;;;;;;5017795;28;19910;-73
2021/05/05 12:07:58;;;;;;;;;;;17.20;99.90;;;;;;5020975;28;20035;-72
2021/05/05 12:10:42;;;;;;;;;;;16.90;99.90;;;;;;5021650;28;19909;-72
2021/05/05 12:13:09;;;;;;;;;;;16.40;99.90;;;;;;5022943;28;19914;-72
2021/05/05 12:15:37;;;;;;;;;;;16.10;99.90;;;;;;5021272;28;19917;-74
2021/05/05 12:18:13;;;;;;;;;;;15.90;99.90;;;;;;5022566;28;19944;-72
2021/05/05 12:20:38;;;;;;;;;;;15.90;99.90;;;;;;5021668;28;19921;-72
2021/05/05 12:23:04;;;;;;;;;;;15.90;99.90;;;;;;5021052;28;19909;-74
2021/05/05 12:25:31;;;;;;;;;;;15.70;99.90;;;;;;5025256;28;19966;-74
2021/05/05 12:27:57;;;;;;;;;;;15.90;99.90;;;;;;5021626;28;20055;-74
2021/05/05 12:30:23;;;;;;;;;;;15.60;99.90;;;;;;5021181;28;20043;-74
2021/05/05 12:32:49;;;;;;;;;;;15.60;99.90;;;;;;5023086;28;19921;-74
2021/05/05 12:35:24;;;;;;;;;;;15.40;99.90;;;;;;5021370;28;19913;-74
2021/05/05 12:37:50;;;;;;;;;;;15.00;99.90;;;;;;5020014;28;19932;-74
2021/05/05 12:40:17;;;;;;;;;;;14.90;99.90;;;;;;5021307;28;20396;-74
2021/05/05 12:42:42;;;;;;;;;;;14.50;99.90;;;;;;5004530;28;19909;-73
2021/05/05 12:45:15;;;;;;;;;;;14.60;99.90;;;;;;5023155;28;19916;-72
2021/05/05 12:47:41;;;;;;;;;;;14.70;99.90;;;;;;5021744;28;19972;-74
2021/05/05 12:50:08;;;;;;;;;;;14.80;99.90;;;;;;5020075;28;20298;-74
2021/05/05 12:52:36;;;;;;;;;;;14.80;99.90;;;;;;5021809;28;19964;-74
2021/05/05 12:55:22;;;;;;;;;;;15.10;99.90;;;;;;5021755;28;19971;-74
2021/05/05 12:58:08;;;;;;;;;;;15.10;99.90;;;;;;5006460;28;20416;-74
2021/05/05 13:00:35;;;;;;;;;;;15.10;99.90;;;;;;5020013;28;20218;-74
2021/05/05 13:03:09;;;;;;;;;;;15.10;99.90;;;;;;5073501;22;19928;-75
2021/05/05 13:05:53;;;;;;;;;;;15.30;99.90;;;;;;5060274;28;20008;-74
2021/05/05 13:08:27;;;;;;;;;;;15.30;99.90;;;;;;5060036;28;20017;-74
2021/05/05 13:10:52;;;;;;;;;;;15.00;99.90;;;;;;5061074;28;20288;-74
2021/05/05 13:13:20;;;;;;;;;;;14.90;99.90;;;;;;5054680;28;19924;-74
2021/05/05 13:32:49;;;;;;;;;;;13.70;99.90;;;;;;5040323;28;19978;-74
2021/05/05 13:35:23;;;;;;;;;;;13.70;99.90;;;;;;5036306;28;19910;-73
2021/05/05 13:37:55;;;;;;;;;;;13.20;99.90;;;;;;5038656;28;19909;-75
2021/05/05 13:40:21;;;;;;;;;;;12.70;99.90;;;;;;5020979;28;19908;-72
2021/05/05 13:42:46;;;;;;;;;;;12.00;99.90;;;;;;5048993;28;19991;-74
2021/05/05 13:45:13;;;;;;;;;;;11.50;99.90;;;;;;5051463;28;20011;-75
2021/05/05 13:47:57;;;;;;;;;;;11.10;99.90;;;;;;5051292;28;20376;-75
2021/05/05 13:50:23;;;;;;;;;;;11.10;99.90;;;;;;5049704;28;19912;-73
2021/05/05 13:52:51;;;;;;;;;;;11.60;99.90;;;;;;5047731;28;19912;-75
2021/05/05 13:55:17;;;;;;;;;;;12.30;99.90;;;;;;5051062;28;19908;-74
2021/05/05 13:57:43;;;;;;;;;;;12.60;99.90;;;;;;5051787;28;19909;-75
2021/05/05 14:00:09;;;;;;;;;;;12.60;99.90;;;;;;5050819;28;19909;-75
2021/05/05 14:02:36;;;;;;;;;;;12.40;99.90;;;;;;5051019;28;20009;-75
2021/05/05 14:05:02;;;;;;;;;;;12.40;99.90;;;;;;5051195;28;19923;-74
2021/05/05 14:07:30;;;;;;;;;;;12.30;99.90;;;;;;5050851;28;19909;-75
2021/05/05 14:09:56;;;;;;;;;;;12.40;99.90;;;;;;5049519;28;19909;-74
2021/05/05 14:12:21;;;;;;;;;;;12.50;99.90;;;;;;5050925;28;19912;-71
2021/05/05 14:14:47;;;;;;;;;;;12.80;99.90;;;;;;5049764;28;19919;-74
2021/05/05 14:17:12;;;;;;;;;;;13.10;99.90;;;;;;5050561;28;19986;-69
2021/05/05 14:19:42;;;;;;;;;;;13.20;99.90;;;;;;5049871;28;19913;-72
2021/05/05 14:22:07;;;;;;;;;;;13.20;99.90;;;;;;5050291;28;19919;-73
2021/05/05 14:24:33;;;;;;;;;;;13.50;99.90;;;;;;5050113;28;19909;-69
2021/05/05 14:26:59;;;;;;;;;;;13.60;99.90;;;;;;5050808;28;19940;-71
2021/05/05 14:29:24;;;;;;;;;;;13.60;99.90;;;;;;5048822;28;19987;-70
2021/05/05 14:31:50;;;;;;;;;;;13.60;99.90;;;;;;5051016;28;19920;-71
2021/05/05 14:34:16;;;;;;;;;;;13.60;99.90;;;;;;5051757;28;19912;-72
2021/05/05 14:36:42;;;;;;;;;;;13.60;99.90;;;;;;5031893;28;20470;-73
2021/05/05 14:39:15;;;;;;;;;;;13.90;99.90;;;;;;5033293;28;19913;-74
2021/05/05 14:41:42;;;;;;;;;;;14.10;99.90;;;;;;5058340;28;19909;-75
2021/05/05 14:49:09;;;;;;;;;;;14.10;99.90;;;;;;5057509;28;19963;-75
2021/05/05 14:51:35;;;;;;;;;;;14.00;99.90;;;;;;5056422;28;19913;-71
2021/05/05 14:54:01;;;;;;;;;;;13.90;99.90;;;;;;5037247;28;19915;-73
2021/05/05 14:56:26;;;;;;;;;;;13.80;99.90;;;;;;5056957;28;19913;-74